Time;durP1;ratioP1;P1;durP2;ratioP2;P2;SDS_P1;SDS_P2;PMS_P1;PMS_P2;Temp;Humidity;BMP_temperature;BMP_pressure;BME280_temperature;BME280_humidity;BME280_pressure;Samples;Min_cycle;Max_cycle;Signal;HPM_P1;HPM_P2
2024/03/11 00:01:48;;;;;;;21.50;12.88;;;;;;;6.66;100.00;100089.94;6113180;23;20022;-73
2024/03/11 00:04:20;;;;;;;23.52;13.20;;;;;;;6.64;100.00;100100.03;6088192;23;20017;-74
2024/03/11 00:06:52;;;;;;;20.30;13.50;;;;;;;6.60;100.00;100092.81;6112940;23;20017;-75
2024/03/11 00:09:33;;;;;;;23.67;14.27;;;;;;;6.57;100.00;100094.16;6066570;23;20022;-74
2024/03/11 00:12:00;;;;;;;21.85;13.00;;;;;;;6.56;100.00;100087.19;6088422;23;20014;-74
2024/03/11 00:14:34;;;;;;;21.15;14.60;;;;;;;6.52;100.00;100091.47;6111818;23;20055;-75
2024/03/11 00:17:06;;;;;;;23.73;13.82;;;;;;;6.50;100.00;100089.06;6082949;23;20416;-73
2024/03/11 00:19:35;;;;;;;22.02;13.55;;;;;;;6.49;100.00;100090.09;6067260;23;20025;-74
2024/03/11 00:22:03;;;;;;;25.52;13.43;;;;;;;6.46;100.00;100098.59;6088120;23;20488;-75
2024/03/11 00:24:30;;;;;;;18.58;11.50;;;;;;;6.46;100.00;100103.13;6088942;23;20093;-73
2024/03/11 00:26:59;;;;;;;22.20;13.77;;;;;;;6.44;100.00;100106.06;6064410;23;20022;-75
2024/03/11 00:29:26;;;;;;;25.95;13.20;;;;;;;6.41;100.00;100109.22;6088263;23;20014;-75
2024/03/11 00:31:56;;;;;;;22.98;12.77;;;;;;;6.38;100.00;100093.78;6088524;23;20519;-73
2024/03/11 00:34:22;;;;;;;22.13;13.57;;;;;;;6.37;100.00;100099.31;6112532;23;20130;-75
2024/03/11 00:36:49;;;;;;;;;;;;;;;6.34;100.00;100103.31;6088113;23;20049;-74
2024/03/11 00:39:17;;;;;;;21.38;13.75;;;;;;;6.31;100.00;100105.69;6111967;23;19908;-74
2024/03/11 00:41:44;;;;;;;20.88;12.23;;;;;;;6.28;100.00;100102.47;6087107;23;20026;-76
2024/03/11 00:44:10;;;;;;;;;;;;;;;6.25;100.00;100110.97;6112063;23;20022;-75
2024/03/11 00:46:38;;;;;;;23.00;13.88;;;;;;;6.19;100.00;100113.88;6086969;23;19913;-75
2024/03/11 00:49:06;;;;;;;23.08;13.30;;;;;;;6.16;100.00;100109.03;6086445;23;20018;-74
2024/03/11 00:51:35;;;;;;;24.55;14.20;;;;;;;6.11;100.00;100104.50;6112418;23;20013;-75
2024/03/11 00:54:01;;;;;;;;;;;;;;;6.08;100.00;100098.88;6115034;23;20339;-75
2024/03/11 00:56:27;;;;;;;21.90;12.73;;;;;;;6.01;100.00;100097.25;6091597;23;19940;-75
2024/03/11 00:58:54;;;;;;;22.02;12.35;;;;;;;5.97;100.00;100101.47;6116048;23;20452;-76
2024/03/11 01:01:20;;;;;;;20.55;12.93;;;;;;;5.97;100.00;100106.00;6091014;23;20025;-79
2024/03/11 01:03:46;;;;;;;21.67;13.15;;;;;;;5.96;100.00;100094.56;6092041;23;20018;-75
2024/03/11 01:06:12;;;;;;;26.52;14.02;;;;;;;5.95;100.00;100105.44;6114600;23;20048;-77
2024/03/11 01:08:38;;;;;;;21.02;12.10;;;;;;;5.96;100.00;100104.38;6115379;23;20037;-76
2024/03/11 01:11:04;;;;;;;25.38;13.80;;;;;;;5.96;100.00;100099.06;6090712;23;20050;-76
2024/03/11 01:13:30;;;;;;;23.70;13.18;;;;;;;5.94;100.00;100103.84;6090446;23;20412;-76
2024/03/11 01:15:56;;;;;;;;;;;;;;;5.95;100.00;100100.91;6115307;23;20018;-75
2024/03/11 01:18:24;;;;;;;24.20;12.40;;;;;;;5.94;100.00;100101.19;6089913;23;19939;-76
2024/03/11 01:20:51;;;;;;;24.70;12.75;;;;;;;5.93;100.00;100104.88;6091212;23;20022;-73
2024/03/11 01:23:17;;;;;;;24.20;13.32;;;;;;;5.96;100.00;100101.72;6088925;23;20073;-75
2024/03/11 01:25:44;;;;;;;20.88;12.52;;;;;;;5.94;100.00;100098.53;6067026;23;20037;-77
2024/03/11 01:28:10;;;;;;;28.95;15.05;;;;;;;5.94;100.00;100103.84;6114491;23;20092;-75
2024/03/11 01:30:37;;;;;;;22.27;12.27;;;;;;;5.93;100.00;100108.34;6067427;23;20068;-76
2024/03/11 01:33:04;;;;;;;25.30;12.80;;;;;;;5.93;100.00;100105.69;6114297;23;20372;-76
2024/03/11 01:35:37;;;;;;;24.70;12.93;;;;;;;5.94;100.00;100099.31;6115690;23;20014;-75
2024/03/11 01:38:03;;;;;;;25.50;14.68;;;;;;;5.93;100.00;100099.56;6115540;23;20021;-75
2024/03/11 01:40:30;;;;;;;24.35;13.38;;;;;;;5.96;100.00;100099.06;6114423;23;20017;-76
2024/03/11 01:42:55;;;;;;;23.65;12.20;;;;;;;5.94;100.00;100091.34;6116768;23;20096;-75
2024/03/11 01:45:23;;;;;;;22.98;13.63;;;;;;;5.93;100.00;100094.25;6116176;23;20009;-74
2024/03/11 01:47:52;;;;;;;23.23;13.00;;;;;;;5.93;100.00;100092.41;6066425;23;20516;-75
2024/03/11 01:50:19;;;;;;;24.27;12.82;;;;;;;5.92;100.00;100082.03;6090215;23;20010;-74
2024/03/11 01:52:56;;;;;;;20.58;12.43;;;;;;;5.93;100.00;100078.31;6081673;23;20014;-76
2024/03/11 01:55:27;;;;;;;22.52;12.85;;;;;;;5.93;100.00;100068.47;6116626;23;20104;-76
2024/03/11 01:58:03;;;;;;;23.15;12.32;;;;;;;5.91;100.00;100069.81;6089794;23;20646;-76
2024/03/11 02:00:29;;;;;;;24.65;12.43;;;;;;;5.90;100.00;100068.97;6113197;23;20014;-75
2024/03/11 02:02:56;;;;;;;26.23;13.70;;;;;;;5.89;100.00;100064.72;6058213;23;20077;-76
2024/03/11 02:05:28;;;;;;;24.13;14.07;;;;;;;5.90;100.00;100070.84;6085142;23;20123;-76
2024/03/11 02:08:01;;;;;;;27.17;14.18;;;;;;;5.88;100.00;100064.94;6061237;23;20018;-77
2024/03/11 02:10:29;;;;;;;25.25;13.20;;;;;;;5.85;100.00;100062.81;6061932;23;20061;-78
2024/03/11 02:12:58;;;;;;;24.65;12.73;;;;;;;5.85;100.00;100060.16;6037213;23;20072;-76
2024/03/11 02:15:25;;;;;;;24.55;14.80;;;;;;;5.86;100.00;100059.09;6060618;23;20105;-77
2024/03/11 02:17:51;;;;;;;;;;;;;;;5.84;100.00;100055.91;6064820;23;20022;-76
2024/03/11 02:20:17;;;;;;;24.27;13.23;;;;;;;5.80;100.00;100044.97;6063625;23;19984;-74
2024/03/11 02:22:46;;;;;;;23.40;12.93;;;;;;;5.82;100.00;100055.34;6085510;23;20360;-77
2024/03/11 02:25:17;;;;;;;22.85;13.02;;;;;;;5.81;100.00;100046.56;6061536;23;20019;-74
2024/03/11 02:27:47;;;;;;;20.80;11.65;;;;;;;5.81;100.00;100048.44;6084072;23;20109;-75
2024/03/11 02:30:13;;;;;;;21.85;12.82;;;;;;;5.80;100.00;100041.50;6060257;23;20029;-76
2024/03/11 02:32:39;;;;;;;22.27;13.13;;;;;;;5.77;100.00;100050.00;6061187;23;20660;-76
2024/03/11 02:35:08;;;;;;;29.50;14.07;;;;;;;5.78;100.00;100044.44;6061345;23;20125;-74
2024/03/11 02:37:35;;;;;;;23.05;13.00;;;;;;;5.77;100.00;100042.03;6036557;23;20022;-74
2024/03/11 02:40:06;;;;;;;22.75;12.60;;;;;;;5.76;100.00;100035.94;6061701;23;20089;-74
2024/03/11 02:42:32;;;;;;;20.98;12.07;;;;;;;5.74;100.00;100036.16;6037604;23;20014;-76
2024/03/11 02:44:59;;;;;;;21.20;11.82;;;;;;;5.76;100.00;100035.94;6062696;23;20053;-74
2024/03/11 02:47:26;;;;;;;25.38;13.80;;;;;;;5.74;100.00;100043.34;6060594;23;20026;-75
2024/03/11 02:49:52;;;;;;;23.90;12.75;;;;;;;5.72;100.00;100037.47;6063396;23;20763;-73
2024/03/11 02:52:18;;;;;;;23.70;12.75;;;;;;;5.68;100.00;100045.13;6062357;23;20650;-75
2024/03/11 02:54:45;;;;;;;22.45;12.40;;;;;;;5.69;100.00;100040.63;6039936;23;20010;-74
2024/03/11 02:57:13;;;;;;;25.88;13.90;;;;;;;5.67;100.00;100048.84;6060573;23;20582;-77
2024/03/11 02:59:40;;;;;;;23.98;14.00;;;;;;;5.67;100.00;100034.78;6038952;23;20018;-73
2024/03/11 03:02:09;;;;;;;28.58;13.20;;;;;;;5.68;100.00;100045.13;6014162;23;20710;-75
2024/03/11 03:04:35;;;;;;;24.00;12.07;;;;;;;5.67;100.00;100048.84;6062517;23;20077;-76
2024/03/11 03:07:01;;;;;;;26.98;13.65;;;;;;;5.68;100.00;100041.69;6062260;23;20025;-75
2024/03/11 03:09:31;;;;;;;23.45;12.93;;;;;;;5.65;100.00;100050.97;6088269;23;20014;-76
2024/03/11 03:11:58;;;;;;;;;;;;;;;5.67;100.00;100046.19;6063193;23;20033;-75
2024/03/11 03:14:25;;;;;;;24.63;13.05;;;;;;;5.68;100.00;100055.78;6038243;23;20398;-73
2024/03/11 03:16:51;;;;;;;26.30;13.38;;;;;;;5.68;100.00;100053.09;6061794;23;20018;-76
2024/03/11 03:19:18;;;;;;;22.10;12.82;;;;;;;5.70;100.00;100053.69;6062669;23;20045;-75
2024/03/11 03:21:44;;;;;;;26.65;12.77;;;;;;;5.71;100.00;100047.31;6061039;23;20023;-77
2024/03/11 03:24:10;;;;;;;25.65;12.50;;;;;;;5.72;100.00;100048.91;6013450;23;20045;-74
2024/03/11 03:26:36;;;;;;;23.42;13.60;;;;;;;5.78;100.00;100054.25;6061080;23;20062;-77
2024/03/11 03:29:11;;;;;;;24.00;12.43;;;;;;;5.80;100.00;100052.16;6062877;23;20015;-74
2024/03/11 03:31:37;;;;;;;22.10;12.70;;;;;;;5.81;100.00;100054.53;6041614;23;20088;-75
2024/03/11 03:34:06;;;;;;;22.13;12.57;;;;;;;5.84;100.00;100053.25;6038332;23;20592;-74
2024/03/11 03:36:32;;;;;;;22.65;12.00;;;;;;;5.85;100.00;100060.97;6059857;23;20025;-78
2024/03/11 03:39:08;;;;;;;23.40;12.45;;;;;;;5.87;100.00;100048.22;6087342;23;20360;-75
2024/03/11 03:41:37;;;;;;;24.23;12.52;;;;;;;5.88;100.00;100044.50;6061956;23;20018;-75
2024/03/11 03:44:04;;;;;;;24.20;13.02;;;;;;;5.90;100.00;100046.91;6038956;23;20053;-76
2024/03/11 03:46:30;;;;;;;21.20;12.00;;;;;;;5.89;100.00;100042.63;6063493;23;20531;-74
2024/03/11 03:48:57;;;;;;;24.13;12.60;;;;;;;5.91;100.00;100037.91;6090429;23;20010;-74
2024/03/11 03:51:23;;;;;;;;;;;;;;;5.92;100.00;100034.19;6039057;23;20582;-74
2024/03/11 03:53:49;;;;;;;24.90;12.30;;;;;;;5.92;100.00;100020.91;6062806;23;19917;-75
2024/03/11 03:56:15;;;;;;;23.10;12.57;;;;;;;5.93;100.00;100015.34;6061794;23;20092;-78
2024/03/11 03:58:41;;;;;;;21.35;11.02;;;;;;;5.91;100.00;100017.44;6062954;23;20715;-75
2024/03/11 04:01:08;;;;;;;19.58;12.18;;;;;;;5.92;100.00;100012.94;6040326;23;20029;-75
2024/03/11 04:03:34;;;;;;;23.17;12.02;;;;;;;5.92;100.00;100019.03;6036409;23;20033;-74
2024/03/11 04:06:01;;;;;;;23.05;12.15;;;;;;;5.93;100.00;100017.19;6063257;23;20058;-77
2024/03/11 04:08:27;;;;;;;25.35;12.85;;;;;;;5.93;100.00;100019.84;6063237;23;20010;-76
2024/03/11 04:10:53;;;;;;;22.95;11.60;;;;;;;5.91;100.00;100022.78;6088720;23;20025;-77
2024/03/11 04:13:18;;;;;;;22.80;11.70;;;;;;;5.93;100.00;100022.50;6062379;23;20022;-77
2024/03/11 04:15:44;;;;;;;21.45;11.73;;;;;;;5.94;100.00;100021.44;6088119;23;20444;-76
2024/03/11 04:18:10;;;;;;;28.88;12.60;;;;;;;5.94;100.00;100016.13;6015538;23;20025;-76
2024/03/11 04:20:37;;;;;;;22.63;12.52;;;;;;;5.93;100.00;100019.84;6063188;23;20026;-75
2024/03/11 04:23:07;;;;;;;22.10;12.50;;;;;;;5.95;100.00;100033.66;6088396;23;20011;-75
2024/03/11 04:25:37;;;;;;;23.05;12.68;;;;;;;5.96;100.00;100035.25;6063590;23;20010;-75
2024/03/11 04:28:05;;;;;;;23.70;13.40;;;;;;;5.95;100.00;100031.81;6063569;23;20124;-74
2024/03/11 04:30:38;;;;;;;21.17;12.18;;;;;;;5.98;100.00;100033.19;6063521;23;20071;-74
2024/03/11 04:33:03;;;;;;;22.38;11.60;;;;;;;5.98;100.00;100038.50;6038581;23;20030;-75
2024/03/11 04:35:34;;;;;;;21.67;12.90;;;;;;;5.99;100.00;100043.53;6062324;23;20010;-77
2024/03/11 04:38:05;;;;;;;21.15;11.63;;;;;;;6.01;100.00;100041.41;6040517;23;20018;-76
2024/03/11 04:40:33;;;;;;;20.55;11.93;;;;;;;6.03;100.00;100041.19;6064254;23;20061;-75
2024/03/11 04:42:59;;;;;;;22.08;12.18;;;;;;;6.04;100.00;100040.13;6064011;23;20093;-74
2024/03/11 04:45:26;;;;;;;23.05;11.90;;;;;;;6.04;100.00;100040.13;6062884;23;20018;-75
2024/03/11 04:47:57;;;;;;;21.65;12.68;;;;;;;6.06;100.00;100042.53;6039129;23;20025;-74
2024/03/11 04:50:26;;;;;;;22.75;13.05;;;;;;;6.06;100.00;100045.97;6063139;23;20475;-74
2024/03/11 04:53:05;;;;;;;23.77;13.18;;;;;;;6.07;100.00;100050.25;6087976;23;20010;-75
2024/03/11 04:55:33;;;;;;;20.05;11.93;;;;;;;6.06;100.00;100048.63;6087110;23;20078;-75
2024/03/11 04:57:59;;;;;;;24.40;13.23;;;;;;;6.08;100.00;100048.38;6062502;23;20021;-76
2024/03/11 05:00:27;;;;;;;24.58;13.43;;;;;;;6.08;100.00;100049.19;6085329;23;20018;-75
2024/03/11 05:02:58;;;;;;;21.10;12.27;;;;;;;6.08;100.00;100046.50;6091635;23;20010;-74
2024/03/11 05:05:25;;;;;;;22.08;13.07;;;;;;;6.10;100.00;100041.75;6066718;23;20014;-75
2024/03/11 05:07:51;;;;;;;25.83;13.82;;;;;;;6.09;100.00;100034.03;6064312;23;20018;-75
2024/03/11 05:10:17;;;;;;;24.90;12.82;;;;;;;6.10;100.00;100044.41;6091013;23;20550;-75
2024/03/11 05:12:44;;;;;;;25.33;13.55;;;;;;;6.11;100.00;100048.69;6088679;23;20017;-75
2024/03/11 05:15:10;;;;;;;21.42;11.85;;;;;;;6.12;100.00;100042.28;6089060;23;20026;-75
2024/03/11 05:17:36;;;;;;;20.58;11.75;;;;;;;6.13;100.00;100035.91;6086564;23;20014;-75
2024/03/11 05:20:06;;;;;;;21.23;11.20;;;;;;;6.15;100.00;100039.13;6062647;23;20449;-75
2024/03/11 05:22:33;;;;;;;22.80;13.13;;;;;;;6.16;100.00;100043.38;6087211;23;20006;-75
2024/03/11 05:24:59;;;;;;;22.10;11.70;;;;;;;6.18;100.00;100038.63;6061660;23;20022;-77
2024/03/11 05:27:25;;;;;;;21.38;12.55;;;;;;;6.17;100.00;100041.53;6061306;23;20018;-75
2024/03/11 05:29:50;;;;;;;22.85;12.65;;;;;;;6.18;100.00;100043.94;6088386;23;20014;-75
2024/03/11 05:32:17;;;;;;;22.90;13.40;;;;;;;6.17;100.00;100052.97;6085373;23;20033;-75
2024/03/11 05:34:44;;;;;;;25.85;12.43;;;;;;;6.19;100.00;100056.16;6016047;23;20037;-76
2024/03/11 05:37:10;;;;;;;;;;;;;;;6.20;100.00;100057.75;6062531;23;20089;-77
2024/03/11 05:39:35;;;;;;;21.45;11.07;;;;;;;6.21;100.00;100066.53;6038485;23;19936;-75
2024/03/11 05:42:05;;;;;;;21.42;11.48;;;;;;;6.20;100.00;100068.41;6088211;23;20437;-74
2024/03/11 05:44:34;;;;;;;23.55;12.18;;;;;;;6.24;100.00;100074.03;6038268;23;20034;-75
2024/03/11 05:47:00;;;;;;;20.00;11.35;;;;;;;6.23;100.00;100067.91;6063581;23;20010;-77
2024/03/11 05:49:28;;;;;;;20.67;12.02;;;;;;;6.24;100.00;100079.34;6061422;23;20018;-76
2024/03/11 05:51:55;;;;;;;20.88;12.60;;;;;;;6.25;100.00;100075.63;6014253;23;20015;-76
2024/03/11 05:54:23;;;;;;;19.23;11.65;;;;;;;6.24;100.00;100074.81;6084465;23;20014;-78
2024/03/11 05:56:58;;;;;;;24.42;12.88;;;;;;;6.25;100.00;100075.63;6061898;23;20029;-76
2024/03/11 05:59:24;;;;;;;19.33;10.82;;;;;;;6.27;100.00;100082.25;6057876;23;20021;-77
2024/03/11 06:01:52;;;;;;;21.42;11.40;;;;;;;6.25;100.00;100084.38;6088088;23;20460;-76
2024/03/11 06:04:18;;;;;;;21.65;11.90;;;;;;;6.26;100.00;100088.66;6086030;23;20014;-74
2024/03/11 06:06:45;;;;;;;18.63;11.10;;;;;;;6.27;100.00;100084.13;6059565;23;20014;-75
2024/03/11 06:09:16;;;;;;;19.80;11.48;;;;;;;6.25;100.00;100086.25;6062668;23;20093;-77
2024/03/11 06:11:46;;;;;;;23.20;12.18;;;;;;;6.27;100.00;100090.25;6061610;23;20081;-77
2024/03/11 06:14:12;;;;;;;20.40;11.70;;;;;;;6.26;100.00;100077.22;6088208;23;20026;-77
2024/03/11 06:16:38;;;;;;;19.92;11.27;;;;;;;6.29;100.00;100082.81;6085849;23;20022;-75
2024/03/11 06:19:06;;;;;;;19.90;11.40;;;;;;;6.27;100.00;100076.94;6087312;23;20334;-75
2024/03/11 06:21:32;;;;;;;21.25;12.65;;;;;;;6.29;100.00;100077.47;6060684;23;20455;-77
2024/03/11 06:23:59;;;;;;;22.23;11.68;;;;;;;6.31;100.00;100079.91;6062202;23;20042;-75
2024/03/11 06:26:27;;;;;;;20.85;12.13;;;;;;;6.34;100.00;100083.91;6059894;23;20706;-76
2024/03/11 06:28:52;;;;;;;19.67;11.52;;;;;;;6.35;100.00;100077.53;6063481;23;20018;-75
2024/03/11 06:31:20;;;;;;;18.45;11.25;;;;;;;6.35;100.00;100082.84;6039607;23;20036;-76
2024/03/11 06:33:47;;;;;;;19.92;11.70;;;;;;;6.35;100.00;100088.97;6062365;23;20042;-76
2024/03/11 06:36:16;;;;;;;20.63;12.20;;;;;;;6.36;100.00;100090.56;6039544;23;20025;-74
2024/03/11 06:38:45;;;;;;;18.77;11.32;;;;;;;6.37;100.00;100083.38;6062175;23;20327;-75
2024/03/11 06:41:11;;;;;;;24.50;12.07;;;;;;;6.39;100.00;100097.25;6061212;23;20040;-75
2024/03/11 06:43:38;;;;;;;21.40;11.23;;;;;;;6.38;100.00;100091.13;6060411;23;20021;-75
2024/03/11 06:46:04;;;;;;;20.63;11.88;;;;;;;6.40;100.00;100088.19;6091638;23;20018;-77
2024/03/11 06:48:30;;;;;;;21.88;11.07;;;;;;;6.43;100.00;100095.66;5993992;23;20026;-75
2024/03/11 06:50:56;;;;;;;25.13;12.65;;;;;;;6.44;100.00;100090.09;6064163;23;20025;-77
2024/03/11 06:53:22;;;;;;;20.55;11.25;;;;;;;6.45;100.00;100089.03;6064045;23;20010;-75
2024/03/11 06:55:48;;;;;;;18.83;10.57;;;;;;;6.47;100.00;100088.75;6087575;23;20429;-74
2024/03/11 06:58:13;;;;;;;21.17;11.75;;;;;;;6.47;100.00;100083.44;6066546;23;20456;-74
2024/03/11 07:00:39;;;;;;;19.85;11.60;;;;;;;6.49;100.00;100081.31;6066914;23;20037;-75
2024/03/11 07:03:05;;;;;;;18.70;11.20;;;;;;;6.51;100.00;100082.69;6065425;23;20050;-76
2024/03/11 07:05:31;;;;;;;20.95;11.85;;;;;;;6.51;100.00;100084.53;6063231;23;20010;-75
2024/03/11 07:07:57;;;;;;;19.52;10.95;;;;;;;6.54;100.00;100089.34;6061357;23;20014;-74
2024/03/11 07:10:23;;;;;;;22.15;11.68;;;;;;;6.56;100.00;100079.22;6061992;23;20018;-74
2024/03/11 07:12:49;;;;;;;19.48;12.80;;;;;;;6.56;100.00;100093.31;6087545;23;20014;-75
2024/03/11 07:15:16;;;;;;;22.50;11.57;;;;;;;6.59;100.00;100094.69;6062006;23;20015;-75
2024/03/11 07:17:41;;;;;;;19.35;12.43;;;;;;;6.59;100.00;100099.22;6061431;23;20045;-75
2024/03/11 07:20:07;;;;;;;20.48;11.43;;;;;;;6.59;100.00;100100.00;6062610;23;20453;-77
2024/03/11 07:22:34;;;;;;;;;;;;;;;6.61;100.00;100100.53;6087289;23;20019;-78
2024/03/11 07:25:03;;;;;;;22.63;11.45;;;;;;;6.61;100.00;100100.53;6086999;23;19909;-79
2024/03/11 07:27:29;;;;;;;19.42;10.88;;;;;;;6.65;100.00;100100.84;6088146;23;20042;-76
2024/03/11 07:29:58;;;;;;;18.35;11.65;;;;;;;6.68;100.00;100102.97;6062900;23;20026;-78
2024/03/11 07:32:25;;;;;;;19.45;11.10;;;;;;;6.69;100.00;100101.91;6062631;23;20033;-76
2024/03/11 07:34:50;;;;;;;19.00;11.07;;;;;;;6.72;100.00;100106.72;6063644;23;20018;-79
2024/03/11 07:37:16;;;;;;;18.13;10.82;;;;;;;6.75;100.00;100108.84;6039272;23;20483;-77
2024/03/11 07:39:42;;;;;;;22.35;12.10;;;;;;;6.77;100.00;100118.19;6086977;23;20011;-76
2024/03/11 07:42:07;;;;;;;18.55;10.82;;;;;;;6.79;100.00;100113.41;6087890;23;20018;-75
2024/03/11 07:44:33;;;;;;;18.92;10.95;;;;;;;6.81;100.00;100108.63;6062560;23;20077;-76
2024/03/11 07:47:00;;;;;;;18.75;10.88;;;;;;;6.83;100.00;100117.13;6063168;23;20014;-75
2024/03/11 07:49:29;;;;;;;;;;;;;;;6.88;100.00;100120.88;6087881;23;20014;-76
2024/03/11 07:51:57;;;;;;;17.80;10.93;;;;;;;6.90;100.00;100124.09;6062878;23;19958;-77
2024/03/11 07:54:22;;;;;;;18.15;10.25;;;;;;;6.92;100.00;100128.09;6062178;23;20520;-74
2024/03/11 07:56:48;;;;;;;19.98;11.68;;;;;;;6.94;100.00;100125.19;6061710;23;20026;-78
2024/03/11 07:59:16;;;;;;;20.20;11.82;;;;;;;6.93;100.00;100135.03;6062455;23;20025;-75
2024/03/11 08:01:42;;;;;;;17.65;10.02;;;;;;;6.94;100.00;100125.97;6065009;23;20018;-73
2024/03/11 08:04:09;;;;;;;17.50;10.63;;;;;;;6.98;100.00;100123.59;6068966;23;20349;-77
2024/03/11 08:06:35;;;;;;;24.27;12.57;;;;;;;7.00;100.00;100129.47;6066815;23;20081;-74
2024/03/11 08:09:01;;;;;;;20.13;11.38;;;;;;;7.03;100.00;100132.38;6092386;23;20672;-75
2024/03/11 08:11:27;;;;;;;19.73;12.35;;;;;;;7.05;100.00;100142.81;6089382;23;20080;-75
2024/03/11 08:13:53;;;;;;;19.45;11.00;;;;;;;7.07;100.00;100135.34;6041567;23;20803;-74
2024/03/11 08:16:18;;;;;;;18.73;11.90;;;;;;;7.06;100.00;100144.41;6063983;23;20111;-76
2024/03/11 08:18:44;;;;;;;19.05;12.30;;;;;;;7.06;100.00;100150.53;6086913;23;20029;-76
2024/03/11 08:21:10;;;;;;;19.65;12.30;;;;;;;7.09;100.00;100152.66;6039448;23;20105;-77
2024/03/11 08:23:40;;;;;;;19.75;11.40;;;;;;;7.10;100.00;100156.09;6087725;23;20018;-75
2024/03/11 08:26:07;;;;;;;19.67;10.45;;;;;;;7.13;100.00;100154.81;6092160;23;20381;-75
2024/03/11 08:28:33;;;;;;;17.42;10.75;;;;;;;7.15;100.00;100164.13;5992757;23;20033;-74
2024/03/11 08:30:59;;;;;;;17.23;10.18;;;;;;;7.15;100.00;100168.66;6066205;23;20018;-78
2024/03/11 08:33:25;;;;;;;18.50;10.98;;;;;;;7.17;100.00;100174.50;6064641;23;20029;-77
2024/03/11 08:35:53;;;;;;;18.38;10.35;;;;;;;7.15;100.00;100180.09;6063688;23;20053;-76
2024/03/11 08:38:20;;;;;;;14.98;9.82;;;;;;;7.16;100.00;100171.06;6086211;23;20014;-77
2024/03/11 08:40:46;;;;;;;19.95;11.68;;;;;;;7.16;100.00;100181.69;6063626;23;20021;-75
2024/03/11 08:43:12;;;;;;;20.33;12.77;;;;;;;7.19;100.00;100186.53;6062176;23;20015;-78
2024/03/11 08:45:41;;;;;;;;;;;;;;;7.20;100.00;100182.78;6062816;23;20014;-79
2024/03/11 08:48:07;;;;;;;16.60;9.93;;;;;;;7.19;100.00;100181.19;6037546;23;19927;-77
2024/03/11 08:50:33;;;;;;;17.83;10.82;;;;;;;7.22;100.00;100182.53;6062096;23;20568;-77
2024/03/11 08:53:00;;;;;;;18.00;11.52;;;;;;;7.24;100.00;100180.41;6061757;23;20465;-76
2024/03/11 08:55:26;;;;;;;18.45;10.95;;;;;;;7.27;100.00;100172.69;6061792;23;20025;-75
2024/03/11 08:57:54;;;;;;;17.33;10.80;;;;;;;7.28;100.00;100187.63;6085522;23;20022;-77
2024/03/11 09:00:27;;;;;;;20.33;12.38;;;;;;;7.30;100.00;100190.81;6062080;23;20018;-79
2024/03/11 09:02:54;;;;;;;20.80;11.57;;;;;;;7.30;100.00;100198.00;6088377;23;20022;-78
2024/03/11 09:05:22;;;;;;;18.75;10.98;;;;;;;7.33;100.00;100192.97;6062664;23;20377;-78
2024/03/11 09:07:51;;;;;;;20.30;11.55;;;;;;;7.37;100.00;100188.69;6060406;23;20006;-77
2024/03/11 09:10:18;;;;;;;18.85;11.45;;;;;;;7.42;100.00;100189.78;6061953;23;20018;-75
2024/03/11 09:12:44;;;;;;;19.98;11.95;;;;;;;7.47;100.00;100192.47;6062401;23;20449;-78
2024/03/11 09:15:16;;;;;;;;;;;;;;;7.52;100.00;100200.47;6039224;23;20599;-80
2024/03/11 09:17:46;;;;;;;19.75;11.25;;;;;;;7.53;100.00;100196.75;6088191;23;19964;-80
2024/03/11 09:20:16;;;;;;;20.73;12.30;;;;;;;7.55;100.00;100191.97;6063778;23;20062;-81
2024/03/11 09:22:49;;;;;;;19.17;11.52;;;;;;;7.61;100.00;100190.91;6087243;23;20089;-80
2024/03/11 09:25:23;;;;;;;22.20;10.65;;;;;;;7.67;100.00;100192.53;6087460;23;20349;-74
2024/03/11 09:27:52;;;;;;;19.52;11.02;;;;;;;7.77;100.00;100197.88;6084985;23;20018;-75
2024/03/11 09:30:17;;;;;;;17.88;10.55;;;;;;;7.85;100.00;100189.34;6088534;23;20485;-75
2024/03/11 09:32:45;;;;;;;20.33;12.48;;;;;;;7.97;100.00;100190.97;6061701;23;20017;-74
2024/03/11 09:35:16;;;;;;;18.17;11.27;;;;;;;8.03;100.00;100200.56;6091706;23;20018;-75
2024/03/11 09:37:47;;;;;;;22.05;12.45;;;;;;;8.02;100.00;100201.66;6065309;23;20006;-74
2024/03/11 09:40:19;;;;;;;18.80;11.38;;;;;;;8.08;100.00;100203.25;6065666;23;20026;-73
2024/03/11 09:42:46;;;;;;;17.98;12.55;;;;;;;8.10;100.00;100204.56;6064297;23;20073;-73
2024/03/11 09:45:14;;;;;;;;;;;;;;;8.08;100.00;100205.91;6089975;23;20041;-73
2024/03/11 09:47:41;;;;;;;18.65;10.77;;;;;;;8.08;100.00;100209.38;6087337;23;20619;-73
2024/03/11 09:50:11;;;;;;;18.90;11.93;;;;;;;8.05;100.00;100214.44;6087346;23;20093;-75
2024/03/11 09:52:43;;;;;;;17.55;11.73;;;;;;;8.05;100.00;100217.91;6061152;23;20408;-73
2024/03/11 09:55:10;;;;;;;17.50;10.77;;;;;;;8.08;100.00;100212.06;6062070;23;20030;-74
2024/03/11 09:57:37;;;;;;;20.30;11.63;;;;;;;8.06;100.00;100221.38;6060312;23;20457;-74
2024/03/11 10:00:12;;;;;;;18.08;11.57;;;;;;;8.07;100.00;100220.31;6084967;23;20045;-74
2024/03/11 10:02:48;;;;;;;18.80;11.95;;;;;;;8.08;100.00;100227.25;6060256;23;20025;-73
2024/03/11 10:05:19;;;;;;;21.13;11.27;;;;;;;8.07;100.00;100212.31;6037489;23;20045;-73
2024/03/11 10:07:45;;;;;;;19.05;12.98;;;;;;;8.08;100.00;100221.91;6036318;23;20010;-72
2024/03/11 10:10:12;;;;;;;20.20;11.90;;;;;;;8.08;100.00;100224.59;6087249;23;20010;-73
2024/03/11 10:12:52;;;;;;;20.75;12.52;;;;;;;8.10;100.00;100227.78;6060212;23;20021;-72
2024/03/11 10:15:29;;;;;;;16.60;10.75;;;;;;;8.10;100.00;100225.91;6061925;23;20050;-74
2024/03/11 10:18:25;;;;;;;18.15;11.93;;;;;;;8.11;100.00;100224.84;6037225;23;20058;-73
2024/03/11 10:20:58;;;;;;;18.38;11.63;;;;;;;8.06;100.00;100219.53;6087066;23;20014;-73
2024/03/11 10:23:25;;;;;;;20.20;12.48;;;;;;;8.06;100.00;100232.84;6059905;23;20021;-72
2024/03/11 10:26:12;;;;;;;19.80;12.38;;;;;;;8.07;100.00;100228.31;6060930;23;20014;-72
2024/03/11 10:28:38;;;;;;;16.73;12.20;;;;;;;8.09;100.00;100226.19;6061009;23;20018;-72
2024/03/11 10:31:19;;;;;;;22.25;12.98;;;;;;;8.11;100.00;100227.50;6061330;23;20460;-73
2024/03/11 10:33:46;;;;;;;19.83;12.18;;;;;;;8.12;100.00;100225.63;6060517;23;20329;-74
2024/03/11 10:36:15;;;;;;;21.08;13.60;;;;;;;8.15;100.00;100235.78;6061725;23;20060;-73
2024/03/11 10:38:43;;;;;;;20.70;11.55;;;;;;;8.14;100.00;100247.53;6034412;23;20026;-74
2024/03/11 10:41:21;;;;;;;22.38;12.73;;;;;;;8.13;100.00;100245.94;6062058;23;20014;-73
2024/03/11 10:43:51;;;;;;;21.15;12.82;;;;;;;8.15;100.00;100249.94;6061417;23;20053;-72
2024/03/11 10:46:20;;;;;;;20.65;13.25;;;;;;;8.13;100.00;100253.94;6061873;23;20018;-73
2024/03/11 10:48:47;;;;;;;21.70;14.00;;;;;;;8.15;100.00;100247.25;6061337;23;20121;-73
2024/03/11 10:51:21;;;;;;;19.58;12.45;;;;;;;8.18;100.00;100251.25;6086416;23;20014;-75
2024/03/11 10:54:03;;;;;;;19.27;13.18;;;;;;;8.19;100.00;100252.84;6064677;23;20033;-75
2024/03/11 10:56:32;;;;;;;19.98;12.50;;;;;;;8.21;100.00;100256.06;6063111;23;20121;-75
2024/03/11 10:59:03;;;;;;;20.40;12.52;;;;;;;8.21;100.00;100258.75;6063357;23;20021;-74
2024/03/11 11:01:33;;;;;;;20.77;13.40;;;;;;;8.20;100.00;100270.47;6061265;23;20018;-74
2024/03/11 11:04:14;;;;;;;23.30;13.30;;;;;;;8.20;100.00;100271.28;6049119;23;20015;-72
2024/03/11 11:06:43;;;;;;;22.95;13.25;;;;;;;8.17;100.00;100269.13;6033179;23;20074;-72
2024/03/11 11:09:13;;;;;;;22.13;13.77;;;;;;;8.14;100.00;100271.53;6059817;23;20014;-73
2024/03/11 11:11:41;;;;;;;21.23;12.75;;;;;;;8.16;100.00;100264.06;6009044;23;20007;-74
2024/03/11 11:14:11;;;;;;;21.55;13.75;;;;;;;8.16;100.00;100264.06;6009758;23;20082;-72
2024/03/11 11:16:43;;;;;;;21.75;13.07;;;;;;;8.17;100.00;100281.66;6033039;23;20616;-73